KSTC/STC METAR and TAF weather

Enter ICAO airport designator
Station Type Date Time Source
KSTC METAR 2020/03/31 06:53 UTC NOAA

KSTC 310653Z AUTO 09007KT 10SM CLR 03/M03 A3021 RMK AO2 SLP243 T00281033


Station Type Date Time Source
KSTC Decoded METAR 2020/03/31 06:53 UTC NOAA

ST. CLOUD REGIONAL AIRPORT, MN, United States (KSTC) 45-33N 094-03W
Mar 31, 2020 - 02:53 AM EDT / 2020.03.31 0653 UTC
Wind: from the E (090 degrees) at 8 MPH (7 KT):0
Visibility: 10 mile(s):0
Sky conditions: clear
Temperature: 37.0 F (2.8 C)
Dew Point: 26.1 F (-3.3 C)
Relative Humidity: 64%
Pressure (altimeter): 30.21 in. Hg (1023 hPa)
ob: KSTC 310653Z AUTO 09007KT 10SM CLR 03/M03 A3021 RMK AO2 SLP243 T00281033
cycle: 7

Station Type Date Time Source
KSTC TAF 2020/03/31 06:22 UTC NOAA

TAF KSTC 310520Z 3106/0106 07004KT P6SM FEW250
FM311500 11008KT P6SM SCT200
FM010200 10010KT P6SM BKN100

Example: see airport list